Terminal Aerodrome Forecast
Issued by NWS

Home | Current Version | Previous Version | Text Only | Print | Product List | Glossary On
Versions: 1 2 3 4 5 6 7 8 9 10 11 12 13 14 15 16 17
000
FTUS41 KCAR 050504 AAB
TAFBHB
TAF AMD
KBHB 050504Z 0505/0524 21005KT 2SM BR BKN005
      TEMPO 0505/0509 1/2SM FG BKN002
     FM051200 VRB03KT P6SM SCT250
     FM051600 22006KT P6SM BKN250
      AMD LTD TO CLD VIS AND WIND=

USA.gov is the U.S. government's official web portal to all federal, state and local government web resources and services.